sensor_id;sensor_type;location;lat;lon;timestamp;temperature;humidity
290;DHT22;13193;48.874;9.086;2022-07-26T00:02:15;20.50;1.00
290;DHT22;13193;48.874;9.086;2022-07-26T00:04:42;20.50;1.00
290;DHT22;13193;48.874;9.086;2022-07-26T00:07:15;20.50;1.00
290;DHT22;13193;48.874;9.086;2022-07-26T00:09:43;20.50;1.00
290;DHT22;13193;48.874;9.086;2022-07-26T00:12:14;20.50;1.00
290;DHT22;13193;48.874;9.086;2022-07-26T00:14:42;20.50;1.00
290;DHT22;13193;48.874;9.086;2022-07-26T00:17:13;20.50;1.00
290;DHT22;13193;48.874;9.086;2022-07-26T00:19:41;20.50;1.00
290;DHT22;13193;48.874;9.086;2022-07-26T00:22:07;20.50;1.00
290;DHT22;13193;48.874;9.086;2022-07-26T00:25:04;20.50;1.00
290;DHT22;13193;48.874;9.086;2022-07-26T00:27:30;20.60;1.00
290;DHT22;13193;48.874;9.086;2022-07-26T00:29:56;20.70;1.00
290;DHT22;13193;48.874;9.086;2022-07-26T00:32:21;20.80;1.00
290;DHT22;13193;48.874;9.086;2022-07-26T00:34:47;20.90;1.00
290;DHT22;13193;48.874;9.086;2022-07-26T00:37:13;21.00;1.00
290;DHT22;13193;48.874;9.086;2022-07-26T00:39:38;21.10;1.00
290;DHT22;13193;48.874;9.086;2022-07-26T00:42:04;21.20;1.00
290;DHT22;13193;48.874;9.086;2022-07-26T00:44:40;21.40;1.00
290;DHT22;13193;48.874;9.086;2022-07-26T00:47:06;21.50;1.00
290;DHT22;13193;48.874;9.086;2022-07-26T00:49:32;21.60;1.00
290;DHT22;13193;48.874;9.086;2022-07-26T00:51:58;21.70;1.00
290;DHT22;13193;48.874;9.086;2022-07-26T00:54:23;21.90;1.00
290;DHT22;13193;48.874;9.086;2022-07-26T00:56:49;22.00;1.00
290;DHT22;13193;48.874;9.086;2022-07-26T00:59:15;22.00;1.00
290;DHT22;13193;48.874;9.086;2022-07-26T01:01:40;21.80;1.00
290;DHT22;13193;48.874;9.086;2022-07-26T01:04:06;21.70;1.00
290;DHT22;13193;48.874;9.086;2022-07-26T01:06:31;21.50;1.00
290;DHT22;13193;48.874;9.086;2022-07-26T01:08:57;21.40;1.00
290;DHT22;13193;48.874;9.086;2022-07-26T01:11:23;21.20;1.00
290;DHT22;13193;48.874;9.086;2022-07-26T01:13:49;21.10;1.00
290;DHT22;13193;48.874;9.086;2022-07-26T01:16:15;21.00;1.00
290;DHT22;13193;48.874;9.086;2022-07-26T01:18:41;20.70;1.00
290;DHT22;13193;48.874;9.086;2022-07-26T01:21:09;20.60;1.00
290;DHT22;13193;48.874;9.086;2022-07-26T01:23:35;20.50;1.00
290;DHT22;13193;48.874;9.086;2022-07-26T01:26:01;20.40;1.00
290;DHT22;13193;48.874;9.086;2022-07-26T01:28:28;20.40;1.00
290;DHT22;13193;48.874;9.086;2022-07-26T01:30:54;20.30;1.00
290;DHT22;13193;48.874;9.086;2022-07-26T01:33:20;20.30;1.00
290;DHT22;13193;48.874;9.086;2022-07-26T01:35:46;20.20;1.00
290;DHT22;13193;48.874;9.086;2022-07-26T01:38:11;20.20;1.00
290;DHT22;13193;48.874;9.086;2022-07-26T01:40:37;20.10;1.00
290;DHT22;13193;48.874;9.086;2022-07-26T01:43:03;20.10;1.00
290;DHT22;13193;48.874;9.086;2022-07-26T01:45:28;20.10;1.00
290;DHT22;13193;48.874;9.086;2022-07-26T01:47:54;20.10;1.00
290;DHT22;13193;48.874;9.086;2022-07-26T01:50:21;20.10;1.00
290;DHT22;13193;48.874;9.086;2022-07-26T01:52:46;20.10;1.00
290;DHT22;13193;48.874;9.086;2022-07-26T01:55:12;20.00;1.00
290;DHT22;13193;48.874;9.086;2022-07-26T01:57:38;20.00;1.00
290;DHT22;13193;48.874;9.086;2022-07-26T02:00:04;20.00;1.00
290;DHT22;13193;48.874;9.086;2022-07-26T02:02:30;20.00;1.00
290;DHT22;13193;48.874;9.086;2022-07-26T02:04:56;20.10;1.00
290;DHT22;13193;48.874;9.086;2022-07-26T02:07:36;20.10;1.00
290;DHT22;13193;48.874;9.086;2022-07-26T02:10:02;20.10;1.00
290;DHT22;13193;48.874;9.086;2022-07-26T02:12:28;20.00;1.00
290;DHT22;13193;48.874;9.086;2022-07-26T02:14:53;20.00;1.00
290;DHT22;13193;48.874;9.086;2022-07-26T02:17:19;20.00;1.00
290;DHT22;13193;48.874;9.086;2022-07-26T02:19:45;19.90;1.00
290;DHT22;13193;48.874;9.086;2022-07-26T02:22:10;19.90;1.00
290;DHT22;13193;48.874;9.086;2022-07-26T02:24:36;19.90;1.00
290;DHT22;13193;48.874;9.086;2022-07-26T02:27:03;19.90;1.00
290;DHT22;13193;48.874;9.086;2022-07-26T02:29:29;19.90;1.00
290;DHT22;13193;48.874;9.086;2022-07-26T02:31:55;19.90;1.00
290;DHT22;13193;48.874;9.086;2022-07-26T02:34:21;19.90;1.00
290;DHT22;13193;48.874;9.086;2022-07-26T02:36:47;19.90;1.00
290;DHT22;13193;48.874;9.086;2022-07-26T02:39:13;19.90;1.00
290;DHT22;13193;48.874;9.086;2022-07-26T02:41:39;19.80;1.00
290;DHT22;13193;48.874;9.086;2022-07-26T02:44:06;19.80;1.00
290;DHT22;13193;48.874;9.086;2022-07-26T02:46:32;19.80;1.00
290;DHT22;13193;48.874;9.086;2022-07-26T02:48:57;19.70;1.00
290;DHT22;13193;48.874;9.086;2022-07-26T02:51:25;19.70;1.00
290;DHT22;13193;48.874;9.086;2022-07-26T02:53:51;19.70;1.00
290;DHT22;13193;48.874;9.086;2022-07-26T02:56:16;19.60;1.00
290;DHT22;13193;48.874;9.086;2022-07-26T02:58:42;19.60;1.00
290;DHT22;13193;48.874;9.086;2022-07-26T03:01:08;19.70;1.00
290;DHT22;13193;48.874;9.086;2022-07-26T03:03:33;19.70;1.00
290;DHT22;13193;48.874;9.086;2022-07-26T03:05:59;19.70;1.00
290;DHT22;13193;48.874;9.086;2022-07-26T03:08:24;19.70;1.00
290;DHT22;13193;48.874;9.086;2022-07-26T03:10:50;19.60;1.00
290;DHT22;13193;48.874;9.086;2022-07-26T03:13:15;19.60;1.00
290;DHT22;13193;48.874;9.086;2022-07-26T03:15:41;19.50;1.00
290;DHT22;13193;48.874;9.086;2022-07-26T03:18:07;19.40;1.00
290;DHT22;13193;48.874;9.086;2022-07-26T03:20:32;19.30;1.00
290;DHT22;13193;48.874;9.086;2022-07-26T03:22:58;19.20;1.00
290;DHT22;13193;48.874;9.086;2022-07-26T03:25:24;19.10;1.00
290;DHT22;13193;48.874;9.086;2022-07-26T03:27:49;19.00;1.00
290;DHT22;13193;48.874;9.086;2022-07-26T03:30:15;18.90;1.00
290;DHT22;13193;48.874;9.086;2022-07-26T03:32:41;18.80;1.00
290;DHT22;13193;48.874;9.086;2022-07-26T03:35:07;18.70;1.00
290;DHT22;13193;48.874;9.086;2022-07-26T03:37:32;18.60;1.00
290;DHT22;13193;48.874;9.086;2022-07-26T03:39:58;18.60;1.00
290;DHT22;13193;48.874;9.086;2022-07-26T03:42:24;18.50;1.00
290;DHT22;13193;48.874;9.086;2022-07-26T03:44:49;18.40;1.00
290;DHT22;13193;48.874;9.086;2022-07-26T03:47:15;18.30;1.00
290;DHT22;13193;48.874;9.086;2022-07-26T03:49:41;18.30;1.00
290;DHT22;13193;48.874;9.086;2022-07-26T03:52:06;18.20;1.00
290;DHT22;13193;48.874;9.086;2022-07-26T03:54:32;18.20;1.00
290;DHT22;13193;48.874;9.086;2022-07-26T03:56:57;18.10;1.00
290;DHT22;13193;48.874;9.086;2022-07-26T03:59:23;18.10;1.00
290;DHT22;13193;48.874;9.086;2022-07-26T04:01:50;18.10;1.00
290;DHT22;13193;48.874;9.086;2022-07-26T04:04:16;18.00;1.00
290;DHT22;13193;48.874;9.086;2022-07-26T04:06:43;18.00;1.00
290;DHT22;13193;48.874;9.086;2022-07-26T04:09:09;18.00;1.00
290;DHT22;13193;48.874;9.086;2022-07-26T04:11:35;18.00;1.00
290;DHT22;13193;48.874;9.086;2022-07-26T04:14:01;18.00;1.00
290;DHT22;13193;48.874;9.086;2022-07-26T04:16:27;18.00;1.00
290;DHT22;13193;48.874;9.086;2022-07-26T04:18:53;18.00;1.00
290;DHT22;13193;48.874;9.086;2022-07-26T04:21:19;18.00;1.00
290;DHT22;13193;48.874;9.086;2022-07-26T04:23:44;18.00;1.00
290;DHT22;13193;48.874;9.086;2022-07-26T04:26:10;18.00;1.00
290;DHT22;13193;48.874;9.086;2022-07-26T04:28:39;18.00;1.00
290;DHT22;13193;48.874;9.086;2022-07-26T04:31:04;18.10;1.00
290;DHT22;13193;48.874;9.086;2022-07-26T04:33:30;18.10;1.00
290;DHT22;13193;48.874;9.086;2022-07-26T04:35:57;18.10;1.00
290;DHT22;13193;48.874;9.086;2022-07-26T04:38:23;18.20;1.00
290;DHT22;13193;48.874;9.086;2022-07-26T04:40:49;18.20;1.00
290;DHT22;13193;48.874;9.086;2022-07-26T04:43:16;18.30;1.00
290;DHT22;13193;48.874;9.086;2022-07-26T04:45:43;18.50;1.00
290;DHT22;13193;48.874;9.086;2022-07-26T04:48:09;18.60;1.00
290;DHT22;13193;48.874;9.086;2022-07-26T04:50:34;18.70;1.00
290;DHT22;13193;48.874;9.086;2022-07-26T04:53:00;18.90;1.00
290;DHT22;13193;48.874;9.086;2022-07-26T04:55:27;19.00;1.00
290;DHT22;13193;48.874;9.086;2022-07-26T04:57:53;19.20;1.00
290;DHT22;13193;48.874;9.086;2022-07-26T05:00:20;19.40;1.00
290;DHT22;13193;48.874;9.086;2022-07-26T05:02:49;19.60;1.00
290;DHT22;13193;48.874;9.086;2022-07-26T05:05:14;19.80;1.00
290;DHT22;13193;48.874;9.086;2022-07-26T05:08:00;19.90;1.00
290;DHT22;13193;48.874;9.086;2022-07-26T05:10:33;20.10;1.00
290;DHT22;13193;48.874;9.086;2022-07-26T05:13:00;20.30;1.00
290;DHT22;13193;48.874;9.086;2022-07-26T05:15:27;20.40;1.00
290;DHT22;13193;48.874;9.086;2022-07-26T05:17:52;20.50;1.00
290;DHT22;13193;48.874;9.086;2022-07-26T05:20:21;20.50;1.00
290;DHT22;13193;48.874;9.086;2022-07-26T05:22:47;20.60;1.00
290;DHT22;13193;48.874;9.086;2022-07-26T05:25:13;20.60;1.00
290;DHT22;13193;48.874;9.086;2022-07-26T05:27:38;20.70;1.00
290;DHT22;13193;48.874;9.086;2022-07-26T05:30:06;20.80;1.00
290;DHT22;13193;48.874;9.086;2022-07-26T05:32:32;21.30;1.00
290;DHT22;13193;48.874;9.086;2022-07-26T05:34:58;21.70;1.00
290;DHT22;13193;48.874;9.086;2022-07-26T05:37:26;22.00;1.00
290;DHT22;13193;48.874;9.086;2022-07-26T05:39:51;22.10;1.00
290;DHT22;13193;48.874;9.086;2022-07-26T05:42:17;22.30;1.00
290;DHT22;13193;48.874;9.086;2022-07-26T05:44:43;22.50;1.00
290;DHT22;13193;48.874;9.086;2022-07-26T05:47:09;22.80;1.00
290;DHT22;13193;48.874;9.086;2022-07-26T05:49:34;23.30;1.00
290;DHT22;13193;48.874;9.086;2022-07-26T05:52:00;23.70;1.00
290;DHT22;13193;48.874;9.086;2022-07-26T05:54:28;24.10;1.00
290;DHT22;13193;48.874;9.086;2022-07-26T05:56:54;24.50;1.00
290;DHT22;13193;48.874;9.086;2022-07-26T05:59:19;24.80;1.00
290;DHT22;13193;48.874;9.086;2022-07-26T06:01:45;25.00;1.00
290;DHT22;13193;48.874;9.086;2022-07-26T06:04:11;25.30;1.00
290;DHT22;13193;48.874;9.086;2022-07-26T06:06:37;25.60;1.00
290;DHT22;13193;48.874;9.086;2022-07-26T06:09:03;25.90;1.00
290;DHT22;13193;48.874;9.086;2022-07-26T06:11:28;26.00;1.00
290;DHT22;13193;48.874;9.086;2022-07-26T06:13:54;26.20;1.00
290;DHT22;13193;48.874;9.086;2022-07-26T06:16:19;26.20;1.00
290;DHT22;13193;48.874;9.086;2022-07-26T06:18:45;26.20;1.00
290;DHT22;13193;48.874;9.086;2022-07-26T06:21:10;26.00;1.00
290;DHT22;13193;48.874;9.086;2022-07-26T06:23:37;25.80;1.00
290;DHT22;13193;48.874;9.086;2022-07-26T06:26:04;25.60;1.00
290;DHT22;13193;48.874;9.086;2022-07-26T06:28:29;25.40;1.00
290;DHT22;13193;48.874;9.086;2022-07-26T06:30:55;25.00;1.00
290;DHT22;13193;48.874;9.086;2022-07-26T06:33:21;24.80;1.00
290;DHT22;13193;48.874;9.086;2022-07-26T06:35:46;24.50;1.00
290;DHT22;13193;48.874;9.086;2022-07-26T06:38:12;24.20;1.00
290;DHT22;13193;48.874;9.086;2022-07-26T06:40:38;24.00;1.00
290;DHT22;13193;48.874;9.086;2022-07-26T06:43:03;23.90;1.00
290;DHT22;13193;48.874;9.086;2022-07-26T06:45:29;23.90;1.00
290;DHT22;13193;48.874;9.086;2022-07-26T06:47:55;23.80;1.00
290;DHT22;13193;48.874;9.086;2022-07-26T06:50:23;23.70;1.00
290;DHT22;13193;48.874;9.086;2022-07-26T06:52:48;23.60;1.00
290;DHT22;13193;48.874;9.086;2022-07-26T06:55:14;23.50;1.00
290;DHT22;13193;48.874;9.086;2022-07-26T06:57:40;23.40;1.00
290;DHT22;13193;48.874;9.086;2022-07-26T07:00:07;23.30;1.00
290;DHT22;13193;48.874;9.086;2022-07-26T07:02:34;23.30;1.00
290;DHT22;13193;48.874;9.086;2022-07-26T07:05:00;23.20;1.00
290;DHT22;13193;48.874;9.086;2022-07-26T07:07:26;23.20;1.00
290;DHT22;13193;48.874;9.086;2022-07-26T07:09:51;23.10;1.00
290;DHT22;13193;48.874;9.086;2022-07-26T07:12:17;23.10;1.00
290;DHT22;13193;48.874;9.086;2022-07-26T07:14:43;23.10;1.00
290;DHT22;13193;48.874;9.086;2022-07-26T07:17:11;23.20;1.00
290;DHT22;13193;48.874;9.086;2022-07-26T07:19:39;23.10;1.00
290;DHT22;13193;48.874;9.086;2022-07-26T07:22:05;23.10;1.00
290;DHT22;13193;48.874;9.086;2022-07-26T07:24:31;23.10;1.00
290;DHT22;13193;48.874;9.086;2022-07-26T07:26:57;23.00;1.00
290;DHT22;13193;48.874;9.086;2022-07-26T07:29:24;23.00;1.00
290;DHT22;13193;48.874;9.086;2022-07-26T07:31:50;23.10;1.00
290;DHT22;13193;48.874;9.086;2022-07-26T07:34:16;23.10;1.00
290;DHT22;13193;48.874;9.086;2022-07-26T07:36:43;23.20;1.00
290;DHT22;13193;48.874;9.086;2022-07-26T07:39:08;23.30;1.00
290;DHT22;13193;48.874;9.086;2022-07-26T07:41:34;23.30;1.00
290;DHT22;13193;48.874;9.086;2022-07-26T07:44:03;23.30;1.00
290;DHT22;13193;48.874;9.086;2022-07-26T07:46:29;23.40;1.00
290;DHT22;13193;48.874;9.086;2022-07-26T07:48:54;23.50;1.00
290;DHT22;13193;48.874;9.086;2022-07-26T07:51:20;23.40;1.00
290;DHT22;13193;48.874;9.086;2022-07-26T07:53:46;23.40;1.00
290;DHT22;13193;48.874;9.086;2022-07-26T07:56:11;23.40;1.00
290;DHT22;13193;48.874;9.086;2022-07-26T07:58:37;23.40;1.00
290;DHT22;13193;48.874;9.086;2022-07-26T08:01:03;23.30;1.00
290;DHT22;13193;48.874;9.086;2022-07-26T08:03:29;23.40;1.00
290;DHT22;13193;48.874;9.086;2022-07-26T08:05:54;23.40;1.00
290;DHT22;13193;48.874;9.086;2022-07-26T08:08:20;23.50;1.00
290;DHT22;13193;48.874;9.086;2022-07-26T08:10:45;23.50;1.00
290;DHT22;13193;48.874;9.086;2022-07-26T08:13:11;23.50;1.00
290;DHT22;13193;48.874;9.086;2022-07-26T08:15:37;23.50;1.00
290;DHT22;13193;48.874;9.086;2022-07-26T08:18:02;23.60;1.00
290;DHT22;13193;48.874;9.086;2022-07-26T08:20:28;23.50;1.00
290;DHT22;13193;48.874;9.086;2022-07-26T08:22:54;23.60;1.00
290;DHT22;13193;48.874;9.086;2022-07-26T08:25:19;23.50;1.00
290;DHT22;13193;48.874;9.086;2022-07-26T08:27:45;23.50;1.00
290;DHT22;13193;48.874;9.086;2022-07-26T08:30:11;23.50;1.00
290;DHT22;13193;48.874;9.086;2022-07-26T08:32:37;23.50;1.00
290;DHT22;13193;48.874;9.086;2022-07-26T08:35:03;23.50;1.00
290;DHT22;13193;48.874;9.086;2022-07-26T08:37:29;23.50;1.00
290;DHT22;13193;48.874;9.086;2022-07-26T08:39:54;23.50;1.00
290;DHT22;13193;48.874;9.086;2022-07-26T08:42:21;23.50;1.00
290;DHT22;13193;48.874;9.086;2022-07-26T08:44:48;23.50;1.00
290;DHT22;13193;48.874;9.086;2022-07-26T08:47:17;23.40;1.00
290;DHT22;13193;48.874;9.086;2022-07-26T08:49:43;23.40;1.00
290;DHT22;13193;48.874;9.086;2022-07-26T08:52:10;23.30;1.00
290;DHT22;13193;48.874;9.086;2022-07-26T08:54:36;23.40;1.00
290;DHT22;13193;48.874;9.086;2022-07-26T08:57:06;23.30;1.00
290;DHT22;13193;48.874;9.086;2022-07-26T08:59:32;23.40;1.00
290;DHT22;13193;48.874;9.086;2022-07-26T09:02:00;23.50;1.00
290;DHT22;13193;48.874;9.086;2022-07-26T09:04:30;23.50;1.00
290;DHT22;13193;48.874;9.086;2022-07-26T09:09:25;23.70;1.00
290;DHT22;13193;48.874;9.086;2022-07-26T09:11:53;23.70;1.00
290;DHT22;13193;48.874;9.086;2022-07-26T09:14:18;23.70;1.00
290;DHT22;13193;48.874;9.086;2022-07-26T09:17:04;23.70;1.00
290;DHT22;13193;48.874;9.086;2022-07-26T09:19:30;23.80;1.00
290;DHT22;13193;48.874;9.086;2022-07-26T09:25:21;24.00;1.00
290;DHT22;13193;48.874;9.086;2022-07-26T09:27:52;24.10;1.00
290;DHT22;13193;48.874;9.086;2022-07-26T09:30:23;24.00;1.00
290;DHT22;13193;48.874;9.086;2022-07-26T09:33:11;24.00;1.00
290;DHT22;13193;48.874;9.086;2022-07-26T09:35:42;23.90;1.00
290;DHT22;13193;48.874;9.086;2022-07-26T09:38:39;23.80;1.00
290;DHT22;13193;48.874;9.086;2022-07-26T09:41:21;23.70;1.00
290;DHT22;13193;48.874;9.086;2022-07-26T09:43:48;23.60;1.00
290;DHT22;13193;48.874;9.086;2022-07-26T09:46:34;23.60;1.00
290;DHT22;13193;48.874;9.086;2022-07-26T09:49:24;23.70;1.00
290;DHT22;13193;48.874;9.086;2022-07-26T09:51:57;23.70;1.00
290;DHT22;13193;48.874;9.086;2022-07-26T09:54:33;23.70;1.00
290;DHT22;13193;48.874;9.086;2022-07-26T09:57:00;23.70;1.00
290;DHT22;13193;48.874;9.086;2022-07-26T09:59:29;23.90;1.00
290;DHT22;13193;48.874;9.086;2022-07-26T10:01:58;23.80;1.00
290;DHT22;13193;48.874;9.086;2022-07-26T10:04:24;23.70;1.00
290;DHT22;13193;48.874;9.086;2022-07-26T10:06:53;23.70;1.00
290;DHT22;13193;48.874;9.086;2022-07-26T10:09:33;23.80;1.00
290;DHT22;13193;48.874;9.086;2022-07-26T10:12:04;23.90;1.00
290;DHT22;13193;48.874;9.086;2022-07-26T10:20:05;24.20;1.00
290;DHT22;13193;48.874;9.086;2022-07-26T10:22:44;24.30;1.00
290;DHT22;13193;48.874;9.086;2022-07-26T10:28:04;24.20;1.00
290;DHT22;13193;48.874;9.086;2022-07-26T10:30:34;24.30;1.00
290;DHT22;13193;48.874;9.086;2022-07-26T10:33:05;24.30;1.00
290;DHT22;13193;48.874;9.086;2022-07-26T10:38:12;24.30;1.00
290;DHT22;13193;48.874;9.086;2022-07-26T10:41:01;24.40;1.00
290;DHT22;13193;48.874;9.086;2022-07-26T10:43:27;24.40;1.00
290;DHT22;13193;48.874;9.086;2022-07-26T10:49:03;24.50;1.00
290;DHT22;13193;48.874;9.086;2022-07-26T10:51:36;24.80;1.00
290;DHT22;13193;48.874;9.086;2022-07-26T10:56:30;25.20;1.00
290;DHT22;13193;48.874;9.086;2022-07-26T10:58:56;25.40;1.00
290;DHT22;13193;48.874;9.086;2022-07-26T11:01:31;25.50;1.00
290;DHT22;13193;48.874;9.086;2022-07-26T11:03:57;25.60;1.00
290;DHT22;13193;48.874;9.086;2022-07-26T11:06:26;25.70;1.00
290;DHT22;13193;48.874;9.086;2022-07-26T11:08:52;25.80;1.00
290;DHT22;13193;48.874;9.086;2022-07-26T11:11:32;25.80;1.00
290;DHT22;13193;48.874;9.086;2022-07-26T11:14:08;25.80;1.00
290;DHT22;13193;48.874;9.086;2022-07-26T11:16:39;25.60;1.00
290;DHT22;13193;48.874;9.086;2022-07-26T11:19:17;25.50;1.00
290;DHT22;13193;48.874;9.086;2022-07-26T11:21:44;25.30;1.00
290;DHT22;13193;48.874;9.086;2022-07-26T11:24:10;25.30;1.00
290;DHT22;13193;48.874;9.086;2022-07-26T11:26:46;25.40;1.00
290;DHT22;13193;48.874;9.086;2022-07-26T11:29:12;25.30;1.00
290;DHT22;13193;48.874;9.086;2022-07-26T11:31:41;25.30;1.00
290;DHT22;13193;48.874;9.086;2022-07-26T11:34:14;25.40;1.00
290;DHT22;13193;48.874;9.086;2022-07-26T11:36:42;25.50;1.00
290;DHT22;13193;48.874;9.086;2022-07-26T11:39:23;25.70;1.00
290;DHT22;13193;48.874;9.086;2022-07-26T11:41:50;25.80;1.00
290;DHT22;13193;48.874;9.086;2022-07-26T11:44:21;25.70;1.00
290;DHT22;13193;48.874;9.086;2022-07-26T11:46:47;25.70;1.00
290;DHT22;13193;48.874;9.086;2022-07-26T11:49:21;25.70;1.00
290;DHT22;13193;48.874;9.086;2022-07-26T11:51:51;25.80;1.00
290;DHT22;13193;48.874;9.086;2022-07-26T11:54:17;25.90;1.00
290;DHT22;13193;48.874;9.086;2022-07-26T11:56:53;26.00;1.00
290;DHT22;13193;48.874;9.086;2022-07-26T11:59:20;26.10;1.00
290;DHT22;13193;48.874;9.086;2022-07-26T12:01:46;26.10;1.00
290;DHT22;13193;48.874;9.086;2022-07-26T12:04:23;26.20;1.00
290;DHT22;13193;48.874;9.086;2022-07-26T12:06:53;26.20;1.00
290;DHT22;13193;48.874;9.086;2022-07-26T12:09:39;26.30;1.00
290;DHT22;13193;48.874;9.086;2022-07-26T12:12:18;26.50;1.00
290;DHT22;13193;48.874;9.086;2022-07-26T12:15:04;26.70;1.00
290;DHT22;13193;48.874;9.086;2022-07-26T12:17:31;26.60;1.00
290;DHT22;13193;48.874;9.086;2022-07-26T12:20:13;26.50;1.00
290;DHT22;13193;48.874;9.086;2022-07-26T12:22:39;26.30;1.00
290;DHT22;13193;48.874;9.086;2022-07-26T12:25:06;26.30;1.00
290;DHT22;13193;48.874;9.086;2022-07-26T12:27:32;26.30;1.00
290;DHT22;13193;48.874;9.086;2022-07-26T12:32:37;26.20;1.00
290;DHT22;13193;48.874;9.086;2022-07-26T12:35:07;26.00;1.00
290;DHT22;13193;48.874;9.086;2022-07-26T12:37:55;26.00;1.00
290;DHT22;13193;48.874;9.086;2022-07-26T12:40:23;26.10;1.00
290;DHT22;13193;48.874;9.086;2022-07-26T12:45:20;26.50;1.00
290;DHT22;13193;48.874;9.086;2022-07-26T12:47:50;26.60;1.00
290;DHT22;13193;48.874;9.086;2022-07-26T12:50:18;26.70;1.00
290;DHT22;13193;48.874;9.086;2022-07-26T12:52:45;26.70;1.00
290;DHT22;13193;48.874;9.086;2022-07-26T12:55:14;26.70;1.00
290;DHT22;13193;48.874;9.086;2022-07-26T12:57:42;26.90;1.00
290;DHT22;13193;48.874;9.086;2022-07-26T13:00:09;27.00;1.00
290;DHT22;13193;48.874;9.086;2022-07-26T13:02:40;27.30;1.00
290;DHT22;13193;48.874;9.086;2022-07-26T13:05:07;27.50;1.00
290;DHT22;13193;48.874;9.086;2022-07-26T13:07:33;27.60;1.00
290;DHT22;13193;48.874;9.086;2022-07-26T13:09:58;27.80;1.00
290;DHT22;13193;48.874;9.086;2022-07-26T13:12:24;28.10;1.00
290;DHT22;13193;48.874;9.086;2022-07-26T13:14:50;28.30;1.00
290;DHT22;13193;48.874;9.086;2022-07-26T13:17:15;28.50;1.00
290;DHT22;13193;48.874;9.086;2022-07-26T13:19:41;28.60;1.00
290;DHT22;13193;48.874;9.086;2022-07-26T13:22:08;28.70;1.00
290;DHT22;13193;48.874;9.086;2022-07-26T13:24:37;28.70;1.00
290;DHT22;13193;48.874;9.086;2022-07-26T13:27:04;28.60;1.00
290;DHT22;13193;48.874;9.086;2022-07-26T13:29:30;28.30;1.00
290;DHT22;13193;48.874;9.086;2022-07-26T13:31:57;28.10;1.00
290;DHT22;13193;48.874;9.086;2022-07-26T13:34:24;28.00;1.00
290;DHT22;13193;48.874;9.086;2022-07-26T13:36:50;27.80;1.00
290;DHT22;13193;48.874;9.086;2022-07-26T13:39:17;27.80;1.00
290;DHT22;13193;48.874;9.086;2022-07-26T13:41:42;27.90;1.00
290;DHT22;13193;48.874;9.086;2022-07-26T13:44:08;28.00;1.00
290;DHT22;13193;48.874;9.086;2022-07-26T13:46:34;28.10;1.00
290;DHT22;13193;48.874;9.086;2022-07-26T13:49:01;28.10;1.00
290;DHT22;13193;48.874;9.086;2022-07-26T13:51:33;28.00;1.00
290;DHT22;13193;48.874;9.086;2022-07-26T13:54:28;28.00;1.00
290;DHT22;13193;48.874;9.086;2022-07-26T13:56:55;28.00;1.00
290;DHT22;13193;48.874;9.086;2022-07-26T13:59:21;27.90;1.00
290;DHT22;13193;48.874;9.086;2022-07-26T14:01:47;27.80;1.00
290;DHT22;13193;48.874;9.086;2022-07-26T14:04:14;27.70;1.00
290;DHT22;13193;48.874;9.086;2022-07-26T14:06:40;27.70;1.00
290;DHT22;13193;48.874;9.086;2022-07-26T14:09:06;27.80;1.00
290;DHT22;13193;48.874;9.086;2022-07-26T14:11:32;28.00;1.00
290;DHT22;13193;48.874;9.086;2022-07-26T14:13:58;28.10;1.00
290;DHT22;13193;48.874;9.086;2022-07-26T14:16:24;28.20;1.00
290;DHT22;13193;48.874;9.086;2022-07-26T14:18:52;28.40;1.00
290;DHT22;13193;48.874;9.086;2022-07-26T14:21:20;28.50;1.00
290;DHT22;13193;48.874;9.086;2022-07-26T14:23:47;28.50;1.00
290;DHT22;13193;48.874;9.086;2022-07-26T14:26:13;28.40;1.00
290;DHT22;13193;48.874;9.086;2022-07-26T14:28:39;28.40;1.00
290;DHT22;13193;48.874;9.086;2022-07-26T14:31:04;28.40;1.00
290;DHT22;13193;48.874;9.086;2022-07-26T14:33:30;28.30;1.00
290;DHT22;13193;48.874;9.086;2022-07-26T14:35:55;28.40;1.00
290;DHT22;13193;48.874;9.086;2022-07-26T14:38:21;28.40;1.00
290;DHT22;13193;48.874;9.086;2022-07-26T14:40:47;28.50;1.00
290;DHT22;13193;48.874;9.086;2022-07-26T14:43:13;28.60;1.00
290;DHT22;13193;48.874;9.086;2022-07-26T14:45:38;28.70;1.00
290;DHT22;13193;48.874;9.086;2022-07-26T14:48:04;28.60;1.00
290;DHT22;13193;48.874;9.086;2022-07-26T14:50:30;28.60;1.00
290;DHT22;13193;48.874;9.086;2022-07-26T14:52:55;28.30;1.00
290;DHT22;13193;48.874;9.086;2022-07-26T14:55:21;28.10;1.00
290;DHT22;13193;48.874;9.086;2022-07-26T14:57:47;28.00;1.00
290;DHT22;13193;48.874;9.086;2022-07-26T15:00:16;27.80;1.00
290;DHT22;13193;48.874;9.086;2022-07-26T15:02:44;27.60;1.00
290;DHT22;13193;48.874;9.086;2022-07-26T15:05:11;27.40;1.00
290;DHT22;13193;48.874;9.086;2022-07-26T15:07:37;27.30;1.00
290;DHT22;13193;48.874;9.086;2022-07-26T15:10:05;27.10;1.00
290;DHT22;13193;48.874;9.086;2022-07-26T15:12:31;27.00;1.00
290;DHT22;13193;48.874;9.086;2022-07-26T15:14:57;27.00;1.00
290;DHT22;13193;48.874;9.086;2022-07-26T15:17:22;27.00;1.00
290;DHT22;13193;48.874;9.086;2022-07-26T15:19:48;27.00;1.00
290;DHT22;13193;48.874;9.086;2022-07-26T15:22:14;27.10;1.00
290;DHT22;13193;48.874;9.086;2022-07-26T15:24:39;27.00;1.00
290;DHT22;13193;48.874;9.086;2022-07-26T15:27:05;27.00;1.00
290;DHT22;13193;48.874;9.086;2022-07-26T15:29:31;26.90;1.00
290;DHT22;13193;48.874;9.086;2022-07-26T15:31:57;26.90;1.00
290;DHT22;13193;48.874;9.086;2022-07-26T15:34:23;26.90;1.00
290;DHT22;13193;48.874;9.086;2022-07-26T15:36:51;26.90;1.00
290;DHT22;13193;48.874;9.086;2022-07-26T15:39:16;26.80;1.00
290;DHT22;13193;48.874;9.086;2022-07-26T15:41:42;26.70;1.00
290;DHT22;13193;48.874;9.086;2022-07-26T15:44:08;26.70;1.00
290;DHT22;13193;48.874;9.086;2022-07-26T15:46:34;26.70;1.00
290;DHT22;13193;48.874;9.086;2022-07-26T15:49:00;26.70;1.00
290;DHT22;13193;48.874;9.086;2022-07-26T15:51:25;26.70;1.00
290;DHT22;13193;48.874;9.086;2022-07-26T15:53:51;26.70;1.00
290;DHT22;13193;48.874;9.086;2022-07-26T15:56:17;26.80;1.00
290;DHT22;13193;48.874;9.086;2022-07-26T15:58:42;26.70;1.00
290;DHT22;13193;48.874;9.086;2022-07-26T16:01:08;26.70;1.00
290;DHT22;13193;48.874;9.086;2022-07-26T16:03:34;26.70;1.00
290;DHT22;13193;48.874;9.086;2022-07-26T16:05:59;26.70;1.00
290;DHT22;13193;48.874;9.086;2022-07-26T16:08:25;26.70;1.00
290;DHT22;13193;48.874;9.086;2022-07-26T16:10:51;26.70;1.00
290;DHT22;13193;48.874;9.086;2022-07-26T16:13:16;26.70;1.00
290;DHT22;13193;48.874;9.086;2022-07-26T16:15:42;26.70;1.00
290;DHT22;13193;48.874;9.086;2022-07-26T16:18:08;26.70;1.00
290;DHT22;13193;48.874;9.086;2022-07-26T16:20:34;26.70;1.00
290;DHT22;13193;48.874;9.086;2022-07-26T16:23:00;26.70;1.00
290;DHT22;13193;48.874;9.086;2022-07-26T16:25:26;26.70;1.00
290;DHT22;13193;48.874;9.086;2022-07-26T16:27:52;26.80;1.00
290;DHT22;13193;48.874;9.086;2022-07-26T16:30:18;26.80;1.00
290;DHT22;13193;48.874;9.086;2022-07-26T16:32:51;26.80;1.00
290;DHT22;13193;48.874;9.086;2022-07-26T16:35:16;26.70;1.00
290;DHT22;13193;48.874;9.086;2022-07-26T16:37:42;26.60;1.00
290;DHT22;13193;48.874;9.086;2022-07-26T16:40:09;26.60;1.00
290;DHT22;13193;48.874;9.086;2022-07-26T16:42:35;26.50;1.00
290;DHT22;13193;48.874;9.086;2022-07-26T16:45:03;26.50;1.00
290;DHT22;13193;48.874;9.086;2022-07-26T16:47:29;26.50;1.00